createdAt,value
2023-03-01T00:00:34.893Z,20.60
2023-03-01T00:03:04.746Z,24.52
2023-03-01T00:05:34.686Z,25.25
2023-03-01T00:08:04.526Z,23.35
2023-03-01T00:10:34.392Z,27.88
2023-03-01T00:13:07.341Z,26.58
2023-03-01T00:15:37.823Z,22.63
2023-03-01T00:18:07.810Z,28.15
2023-03-01T00:20:37.782Z,28.40
2023-03-01T00:23:07.677Z,22.58
2023-03-01T00:25:37.517Z,26.48
2023-03-01T00:28:09.975Z,26.48
2023-03-01T00:30:39.890Z,26.30
2023-03-01T00:33:09.784Z,30.52
2023-03-01T00:35:40.205Z,27.83
2023-03-01T00:38:10.416Z,26.90
2023-03-01T00:40:40.852Z,23.95
2023-03-01T00:43:13.266Z,28.55
2023-03-01T00:45:43.128Z,26.30
2023-03-01T00:48:12.998Z,24.10
2023-03-01T00:50:43.245Z,24.85
2023-03-01T00:53:13.081Z,27.35
2023-03-01T00:55:42.938Z,23.55
2023-03-01T00:58:15.406Z,27.45
2023-03-01T01:00:45.284Z,25.23
2023-03-01T01:03:15.127Z,31.63
2023-03-01T01:05:44.965Z,29.75
2023-03-01T01:08:14.957Z,29.67
2023-03-01T01:10:47.288Z,22.55
2023-03-01T01:13:19.738Z,26.23
2023-03-01T01:15:49.612Z,27.77
2023-03-01T01:18:19.499Z,27.65
2023-03-01T01:20:49.365Z,26.08
2023-03-01T01:23:19.208Z,28.42
2023-03-01T01:25:49.130Z,24.70
2023-03-01T01:28:21.592Z,24.58
2023-03-01T01:30:51.548Z,25.05
2023-03-01T01:33:21.422Z,26.30
2023-03-01T01:35:51.321Z,27.38
2023-03-01T01:38:22.342Z,26.48
2023-03-01T01:40:53.652Z,25.05
2023-03-01T01:43:29.740Z,24.25
2023-03-01T01:46:03.875Z,24.15
2023-03-01T01:48:44.078Z,24.63
2023-03-01T01:51:18.641Z,25.05
2023-03-01T01:53:51.931Z,27.10
2023-03-01T01:56:22.962Z,29.52
2023-03-01T01:58:56.227Z,24.38
2023-03-01T02:01:26.268Z,23.50
2023-03-01T02:03:56.721Z,27.95
2023-03-01T02:06:33.277Z,26.33
2023-03-01T02:09:08.607Z,22.10
2023-03-01T02:11:40.715Z,24.88
2023-03-01T02:14:13.354Z,24.17
2023-03-01T02:16:43.617Z,24.38
2023-03-01T02:19:23.439Z,25.00
2023-03-01T02:22:02.125Z,19.65
2023-03-01T02:24:46.689Z,22.05
2023-03-01T02:27:25.781Z,24.30
2023-03-01T02:29:58.329Z,24.58
2023-03-01T02:32:26.354Z,23.15
2023-03-01T02:34:56.934Z,20.10
2023-03-01T02:37:29.040Z,25.85
2023-03-01T02:40:04.110Z,24.60
2023-03-01T02:42:42.638Z,24.58
2023-03-01T02:45:15.281Z,21.60
2023-03-01T02:47:45.160Z,21.30
2023-03-01T02:50:45.136Z,25.30
2023-03-01T02:53:20.312Z,23.63
2023-03-01T02:55:50.181Z,22.50
2023-03-01T02:58:20.124Z,22.08
2023-03-01T03:00:52.663Z,23.42
2023-03-01T03:03:24.930Z,26.17
2023-03-01T03:05:55.069Z,24.08
2023-03-01T03:08:25.513Z,21.58
2023-03-01T03:10:55.493Z,23.20
2023-03-01T03:13:29.374Z,24.83
2023-03-01T03:16:02.280Z,26.20
2023-03-01T03:18:32.365Z,24.92
2023-03-01T03:21:02.248Z,25.85
2023-03-01T03:23:32.461Z,25.83
2023-03-01T03:26:02.312Z,23.27
2023-03-01T03:28:32.159Z,20.20
2023-03-01T03:31:04.997Z,22.38
2023-03-01T03:33:35.254Z,19.98
2023-03-01T03:36:05.217Z,20.52
2023-03-01T03:38:35.205Z,21.60
2023-03-01T03:41:08.342Z,23.50
2023-03-01T03:43:40.938Z,20.85
2023-03-01T03:46:14.797Z,24.40
2023-03-01T03:48:47.045Z,22.88
2023-03-01T03:51:19.253Z,19.42
2023-03-01T03:53:49.697Z,23.20
2023-03-01T03:56:19.611Z,19.63
2023-03-01T03:58:49.500Z,24.08
2023-03-01T04:01:22.715Z,22.48
2023-03-01T04:03:55.473Z,22.83
2023-03-01T04:06:25.841Z,21.10
2023-03-01T04:08:59.260Z,20.17
2023-03-01T04:11:31.767Z,20.77
2023-03-01T04:14:02.759Z,18.88
2023-03-01T04:16:35.289Z,21.95
2023-03-01T04:19:07.469Z,21.92
2023-03-01T04:21:37.366Z,23.63
2023-03-01T04:24:08.132Z,22.95
2023-03-01T04:26:37.983Z,24.67
2023-03-01T04:29:07.957Z,24.92
2023-03-01T04:31:40.449Z,23.00
2023-03-01T04:34:10.387Z,22.38
2023-03-01T04:36:41.092Z,24.00
2023-03-01T04:39:13.455Z,23.55
2023-03-01T04:41:46.448Z,23.65
2023-03-01T04:44:16.689Z,22.92
2023-03-01T04:46:49.106Z,20.77
2023-03-01T04:49:18.954Z,19.10
2023-03-01T04:51:48.797Z,22.42
2023-03-01T04:54:18.656Z,22.92
2023-03-01T04:56:48.527Z,21.38
2023-03-01T04:59:18.385Z,21.50
2023-03-01T05:01:50.789Z,24.45
2023-03-01T05:04:20.708Z,25.48
2023-03-01T05:06:50.587Z,21.30
2023-03-01T05:09:20.796Z,21.90
2023-03-01T05:11:52.702Z,21.88
2023-03-01T05:14:22.845Z,20.73
2023-03-01T05:16:55.308Z,23.85
2023-03-01T05:19:25.148Z,21.73
2023-03-01T05:22:07.342Z,19.38
2023-03-01T05:24:39.654Z,19.83
2023-03-01T05:27:09.931Z,32.40
2023-03-01T05:29:40.497Z,21.63
2023-03-01T05:32:16.646Z,25.67
2023-03-01T05:34:47.412Z,23.15
2023-03-01T05:37:17.467Z,27.15
2023-03-01T05:39:48.495Z,22.17
2023-03-01T05:42:20.676Z,23.15
2023-03-01T05:44:50.575Z,22.90
2023-03-01T05:47:23.036Z,30.88
2023-03-01T05:49:52.870Z,21.50
2023-03-01T05:52:22.724Z,21.10
2023-03-01T05:54:52.753Z,21.65
2023-03-01T05:57:22.637Z,20.75
2023-03-01T05:59:52.496Z,27.83
2023-03-01T06:02:24.945Z,22.88
2023-03-01T06:04:54.921Z,23.77
2023-03-01T06:07:24.874Z,21.60
2023-03-01T06:09:54.745Z,30.10
2023-03-01T06:12:24.622Z,30.88
2023-03-01T06:14:54.487Z,22.67
2023-03-01T06:17:26.947Z,24.75
2023-03-01T06:19:56.822Z,23.88
2023-03-01T06:22:26.720Z,25.13
2023-03-01T06:24:56.542Z,33.53
2023-03-01T06:27:26.427Z,25.23
2023-03-01T06:29:56.390Z,25.90
2023-03-01T06:32:29.040Z,29.02
2023-03-01T06:34:59.600Z,30.55
2023-03-01T06:37:30.117Z,27.95
2023-03-01T06:40:00.015Z,35.15
2023-03-01T06:42:29.900Z,33.47
2023-03-01T06:44:59.790Z,29.88
2023-03-01T06:47:32.222Z,26.42
2023-03-01T06:50:02.098Z,26.48
2023-03-01T06:52:32.670Z,30.92
2023-03-01T06:55:02.619Z,23.98
2023-03-01T06:57:32.892Z,30.15
2023-03-01T07:00:03.006Z,21.25
2023-03-01T07:02:35.554Z,23.13
2023-03-01T07:05:05.450Z,25.02
2023-03-01T07:07:35.438Z,27.08
2023-03-01T07:10:05.311Z,24.08
2023-03-01T07:12:35.180Z,28.77
2023-03-01T07:15:05.048Z,26.13
2023-03-01T07:17:37.500Z,25.58
2023-03-01T07:20:08.539Z,23.85
2023-03-01T07:22:38.592Z,25.92
2023-03-01T07:25:09.772Z,29.75
2023-03-01T07:27:41.965Z,25.23
2023-03-01T07:30:14.161Z,27.77
2023-03-01T07:32:46.697Z,24.52
2023-03-01T07:35:16.905Z,30.67
2023-03-01T07:37:47.001Z,30.73
2023-03-01T07:40:17.275Z,28.27
2023-03-01T07:42:47.135Z,26.55
2023-03-01T07:45:17.111Z,28.00
2023-03-01T07:47:49.519Z,31.65
2023-03-01T07:50:20.310Z,28.25
2023-03-01T07:52:50.800Z,30.85
2023-03-01T07:55:21.107Z,26.58
2023-03-01T07:57:50.941Z,27.80
2023-03-01T08:00:22.319Z,29.08
2023-03-01T08:02:54.776Z,32.22
2023-03-01T08:05:24.668Z,29.70
2023-03-01T08:07:54.627Z,37.85
2023-03-01T08:10:24.747Z,40.28
2023-03-01T08:12:56.366Z,39.60
2023-03-01T08:15:26.235Z,37.95
2023-03-01T08:18:04.731Z,32.85
2023-03-01T08:20:34.585Z,35.83
2023-03-01T08:23:04.440Z,38.65
2023-03-01T08:25:34.495Z,32.47
2023-03-01T08:28:04.348Z,27.20
2023-03-01T08:30:34.187Z,24.63
2023-03-01T08:33:06.839Z,24.83
2023-03-01T08:35:36.714Z,23.17
2023-03-01T08:38:06.571Z,23.45
2023-03-01T08:40:36.431Z,23.13
2023-03-01T08:43:06.359Z,25.83
2023-03-01T08:45:36.221Z,30.98
2023-03-01T08:48:08.964Z,25.00
2023-03-01T08:50:40.068Z,35.17
2023-03-01T08:53:10.454Z,28.92
2023-03-01T08:55:40.287Z,29.17
2023-03-01T08:58:10.213Z,29.13
2023-03-01T09:00:41.130Z,31.05
2023-03-01T09:03:13.784Z,24.10
2023-03-01T09:05:43.630Z,24.85
2023-03-01T09:08:13.581Z,22.08
2023-03-01T09:10:43.472Z,20.65
2023-03-01T09:13:15.812Z,19.15
2023-03-01T09:15:45.676Z,22.13
2023-03-01T09:18:18.149Z,17.65
2023-03-01T09:20:48.028Z,17.02
2023-03-01T09:23:17.949Z,18.55
2023-03-01T09:25:47.771Z,15.80
2023-03-01T09:28:29.145Z,14.25
2023-03-01T09:31:03.035Z,16.55
2023-03-01T09:33:36.940Z,18.15
2023-03-01T09:36:10.233Z,10.63
2023-03-01T09:38:40.154Z,10.10
2023-03-01T09:41:18.585Z,11.38
2023-03-01T09:43:56.465Z,12.60
2023-03-01T09:46:29.960Z,13.48
2023-03-01T09:49:09.328Z,9.85
2023-03-01T09:51:40.635Z,12.43
2023-03-01T09:54:11.581Z,10.95
2023-03-01T09:56:48.043Z,11.27
2023-03-01T09:59:29.811Z,12.52
2023-03-01T10:02:08.092Z,10.70
2023-03-01T10:04:49.935Z,11.15
2023-03-01T10:07:33.325Z,11.10
2023-03-01T10:10:05.672Z,10.35
2023-03-01T10:12:42.780Z,10.20
2023-03-01T10:15:18.991Z,11.13
2023-03-01T10:17:54.188Z,9.35
2023-03-01T10:20:28.980Z,10.02
2023-03-01T10:25:59.471Z,10.82
2023-03-01T10:28:35.342Z,12.73
2023-03-01T10:31:05.391Z,11.32
2023-03-01T10:33:40.618Z,10.07
2023-03-01T10:36:13.272Z,9.48
2023-03-01T10:38:54.999Z,9.25
2023-03-01T10:41:27.057Z,9.35
2023-03-01T10:44:01.219Z,8.77
2023-03-01T10:46:34.066Z,9.05
2023-03-01T10:49:17.878Z,7.68
2023-03-01T10:51:54.254Z,7.10
2023-03-01T10:54:29.233Z,7.05
2023-03-01T10:57:01.499Z,8.20
2023-03-01T10:59:34.035Z,11.02
2023-03-01T11:02:25.403Z,7.78
2023-03-01T11:05:05.351Z,7.22
2023-03-01T11:07:52.235Z,8.90
2023-03-01T11:10:25.614Z,8.85
2023-03-01T11:12:56.498Z,9.18
2023-03-01T11:15:30.410Z,7.35
2023-03-01T11:18:13.485Z,10.43
2023-03-01T11:20:44.107Z,9.82
2023-03-01T11:23:18.242Z,7.93
2023-03-01T11:25:53.276Z,9.63
2023-03-01T11:28:26.653Z,9.95
2023-03-01T11:31:08.724Z,8.18
2023-03-01T11:33:46.918Z,8.20
2023-03-01T11:36:30.026Z,8.18
2023-03-01T11:39:09.679Z,8.32
2023-03-01T11:41:43.255Z,10.68
2023-03-01T11:44:22.044Z,10.38
2023-03-01T11:47:18.226Z,11.57
2023-03-01T11:50:19.665Z,8.60
2023-03-01T11:53:08.413Z,9.13
2023-03-01T11:56:02.759Z,13.75
2023-03-01T11:58:49.884Z,15.13
2023-03-01T12:01:39.693Z,9.07
2023-03-01T12:04:43.213Z,7.75
2023-03-01T12:07:20.127Z,6.82
2023-03-01T12:10:17.547Z,7.07
2023-03-01T12:13:06.800Z,13.60
2023-03-01T12:16:17.605Z,7.55
2023-03-01T12:19:19.920Z,8.05
2023-03-01T12:22:06.901Z,7.43
2023-03-01T12:25:09.446Z,5.78
2023-03-01T12:28:05.066Z,6.47
2023-03-01T12:30:50.676Z,6.45
2023-03-01T12:33:31.211Z,5.95
2023-03-01T12:36:42.301Z,6.18
2023-03-01T12:39:31.580Z,6.38
2023-03-01T12:42:15.768Z,7.05
2023-03-01T12:45:11.116Z,5.88
2023-03-01T12:48:02.332Z,7.07
2023-03-01T12:50:42.678Z,5.40
2023-03-01T12:53:26.469Z,6.55
2023-03-01T12:56:01.986Z,7.03
2023-03-01T12:58:48.792Z,8.45
2023-03-01T13:01:35.062Z,7.07
2023-03-01T13:04:37.760Z,5.93
2023-03-01T13:07:28.452Z,5.80
2023-03-01T13:10:15.605Z,6.50
2023-03-01T13:13:05.896Z,5.05
2023-03-01T13:15:40.567Z,5.90
2023-03-01T13:18:37.476Z,6.88
2023-03-01T13:21:08.654Z,7.72
2023-03-01T13:23:41.408Z,6.47
2023-03-01T13:26:19.562Z,6.63
2023-03-01T13:29:01.770Z,7.20
2023-03-01T13:32:05.858Z,9.00
2023-03-01T13:35:46.220Z,6.32
2023-03-01T13:38:50.618Z,8.15
2023-03-01T13:41:54.050Z,6.55
2023-03-01T13:44:30.758Z,7.53
2023-03-01T13:47:03.444Z,8.05
2023-03-01T13:49:46.850Z,9.82
2023-03-01T13:52:40.410Z,6.90
2023-03-01T13:55:24.809Z,7.78
2023-03-01T13:57:59.029Z,6.40
2023-03-01T14:00:35.946Z,6.28
2023-03-01T14:03:15.267Z,7.53
2023-03-01T14:06:12.823Z,7.18
2023-03-01T14:08:44.144Z,7.43
2023-03-01T14:12:16.953Z,6.38
2023-03-01T14:14:52.721Z,7.38
2023-03-01T14:17:54.407Z,6.85
2023-03-01T14:20:27.613Z,8.18
2023-03-01T14:23:01.171Z,7.07
2023-03-01T14:25:33.764Z,5.88
2023-03-01T14:28:22.783Z,6.50
2023-03-01T14:30:54.970Z,6.93
2023-03-01T14:33:28.674Z,6.15
2023-03-01T14:36:02.898Z,5.50
2023-03-01T14:38:37.376Z,6.68
2023-03-01T14:41:11.947Z,6.13
2023-03-01T14:43:49.015Z,6.45
2023-03-01T14:46:25.397Z,7.47
2023-03-01T14:48:57.077Z,9.13
2023-03-01T14:51:27.266Z,5.97
2023-03-01T14:53:57.704Z,8.10
2023-03-01T14:56:27.606Z,6.57
2023-03-01T14:59:02.797Z,5.80
2023-03-01T15:01:32.923Z,5.68
2023-03-01T15:04:03.489Z,6.25
2023-03-01T15:06:33.933Z,7.30
2023-03-01T15:09:04.484Z,6.57
2023-03-01T15:11:38.034Z,11.93
2023-03-01T15:14:33.060Z,10.48
2023-03-01T15:17:03.002Z,7.60
2023-03-01T15:19:33.165Z,5.78
2023-03-01T15:22:13.113Z,8.15
2023-03-01T15:24:43.026Z,6.22
2023-03-01T15:27:20.444Z,6.85
2023-03-01T15:30:00.210Z,9.50
2023-03-01T15:32:34.658Z,8.38
2023-03-01T15:35:42.732Z,8.00
2023-03-01T15:38:30.532Z,6.45
2023-03-01T15:41:02.657Z,7.68
2023-03-01T15:43:50.757Z,6.50
2023-03-01T15:46:31.013Z,6.45
2023-03-01T15:49:04.102Z,11.98
2023-03-01T15:51:37.928Z,8.35
2023-03-01T15:54:19.067Z,10.77
2023-03-01T15:56:48.931Z,7.95
2023-03-01T15:59:18.823Z,10.02
2023-03-01T16:01:52.159Z,10.80
2023-03-01T16:04:25.904Z,11.38
2023-03-01T16:06:57.862Z,11.15
2023-03-01T16:09:29.454Z,12.95
2023-03-01T16:11:59.334Z,9.52
2023-03-01T16:14:29.401Z,8.52
2023-03-01T16:17:01.857Z,11.85
2023-03-01T16:19:31.703Z,8.95
2023-03-01T16:22:01.534Z,9.85
2023-03-01T16:24:31.401Z,9.73
2023-03-01T16:27:01.254Z,9.85
2023-03-01T16:29:31.183Z,7.80
2023-03-01T16:32:04.903Z,8.93
2023-03-01T16:34:34.886Z,8.82
2023-03-01T16:37:04.725Z,8.10
2023-03-01T16:39:34.591Z,10.80
2023-03-01T16:42:04.855Z,11.00
2023-03-01T16:44:34.703Z,10.48
2023-03-01T16:47:07.245Z,10.98
2023-03-01T16:49:37.125Z,12.70
2023-03-01T16:52:06.967Z,12.88
2023-03-01T16:54:36.982Z,11.90
2023-03-01T16:57:06.987Z,11.80
2023-03-01T16:59:37.507Z,11.60
2023-03-01T17:02:13.628Z,10.60
2023-03-01T17:04:43.616Z,13.88
2023-03-01T17:07:13.486Z,15.32
2023-03-01T17:09:43.448Z,9.65
2023-03-01T17:12:16.276Z,22.48
2023-03-01T17:14:46.679Z,20.88
2023-03-01T17:17:19.131Z,16.38
2023-03-01T17:19:49.097Z,13.35
2023-03-01T17:22:19.450Z,14.32
2023-03-01T17:24:49.345Z,15.57
2023-03-01T17:27:19.452Z,16.45
2023-03-01T17:29:49.329Z,18.48
2023-03-01T17:32:21.952Z,18.38
2023-03-01T17:34:51.957Z,19.63
2023-03-01T17:37:21.838Z,67.72
2023-03-01T17:39:51.718Z,26.73
2023-03-01T17:42:21.605Z,22.73
2023-03-01T17:44:51.501Z,31.83
2023-03-01T17:47:24.050Z,29.65
2023-03-01T17:49:53.927Z,27.65
2023-03-01T17:52:24.140Z,26.08
2023-03-01T17:54:54.138Z,19.88
2023-03-01T17:57:23.976Z,18.55
2023-03-01T17:59:53.827Z,19.63
2023-03-01T18:02:26.644Z,16.60
2023-03-01T18:05:00.171Z,20.15
2023-03-01T18:07:30.382Z,19.10
2023-03-01T18:10:00.316Z,19.00
2023-03-01T18:12:31.601Z,21.55
2023-03-01T18:15:02.173Z,35.10
2023-03-01T18:17:34.641Z,34.63
2023-03-01T18:20:04.615Z,40.42
2023-03-01T18:22:34.741Z,34.38
2023-03-01T18:25:05.026Z,42.85
2023-03-01T18:27:36.960Z,31.73
2023-03-01T18:30:08.746Z,34.33
2023-03-01T18:32:41.392Z,43.60
2023-03-01T18:35:11.889Z,41.55
2023-03-01T18:37:41.817Z,39.22
2023-03-01T18:40:14.076Z,34.42
2023-03-01T18:42:44.019Z,38.60
2023-03-01T18:45:17.060Z,38.65
2023-03-01T18:47:49.900Z,42.47
2023-03-01T18:50:20.387Z,47.40
2023-03-01T18:52:50.258Z,48.85
2023-03-01T18:55:20.342Z,38.92
2023-03-01T18:57:50.223Z,40.13
2023-03-01T19:00:22.173Z,39.85
2023-03-01T19:02:54.696Z,42.00
2023-03-01T19:05:24.618Z,48.67
2023-03-01T19:07:54.480Z,39.53
2023-03-01T19:10:24.555Z,42.75
2023-03-01T19:12:54.409Z,36.90
2023-03-01T19:15:24.333Z,39.90
2023-03-01T19:17:57.404Z,37.08
2023-03-01T19:20:27.498Z,48.80
2023-03-01T19:22:57.382Z,44.25
2023-03-01T19:25:27.273Z,46.65
2023-03-01T19:27:57.258Z,55.42
2023-03-01T19:30:27.316Z,53.00
2023-03-01T19:32:59.760Z,48.13
2023-03-01T19:35:29.749Z,47.10
2023-03-01T19:37:59.659Z,49.00
2023-03-01T19:40:29.652Z,55.33
2023-03-01T19:42:59.565Z,51.17
2023-03-01T19:45:33.636Z,47.75
2023-03-01T19:48:06.843Z,51.30
2023-03-01T19:50:38.371Z,43.75
2023-03-01T19:53:08.390Z,44.53
2023-03-01T19:55:39.886Z,46.78
2023-03-01T19:58:10.864Z,42.40
2023-03-01T20:00:42.978Z,41.70
2023-03-01T20:03:15.726Z,40.22
2023-03-01T20:05:46.697Z,44.78
2023-03-01T20:08:16.549Z,40.28
2023-03-01T20:10:46.479Z,36.78
2023-03-01T20:13:16.369Z,35.78
2023-03-01T20:15:46.992Z,36.03
2023-03-01T20:18:19.449Z,35.75
2023-03-01T20:20:51.946Z,30.10
2023-03-01T20:23:22.538Z,32.15
2023-03-01T20:25:53.983Z,40.25
2023-03-01T20:28:23.869Z,35.25
2023-03-01T20:30:53.732Z,32.03
2023-03-01T20:33:26.247Z,36.03
2023-03-01T20:35:56.262Z,43.25
2023-03-01T20:38:26.346Z,47.17
2023-03-01T20:41:01.585Z,40.38
2023-03-01T20:43:32.254Z,40.63
2023-03-01T20:46:08.166Z,41.83
2023-03-01T20:48:43.098Z,35.38
2023-03-01T20:51:14.800Z,43.92
2023-03-01T20:53:45.059Z,51.25
2023-03-01T20:56:17.732Z,66.93
2023-03-01T20:58:47.781Z,50.10
2023-03-01T21:01:21.218Z,58.42
2023-03-01T21:03:54.366Z,53.08
2023-03-01T21:06:24.626Z,59.38
2023-03-01T21:08:56.821Z,53.55
2023-03-01T21:11:27.529Z,49.80
2023-03-01T21:13:58.265Z,46.63
2023-03-01T21:16:28.569Z,43.45
2023-03-01T21:19:03.070Z,41.10
2023-03-01T21:21:33.018Z,45.80
2023-03-01T21:24:02.986Z,34.58
2023-03-01T21:26:33.741Z,33.17
2023-03-01T21:29:04.400Z,41.40
2023-03-01T21:31:37.431Z,41.28
2023-03-01T21:34:10.261Z,43.75
2023-03-01T21:36:40.117Z,43.63
2023-03-01T21:39:11.848Z,42.10
2023-03-01T21:41:41.936Z,41.03
2023-03-01T21:44:11.826Z,39.35
2023-03-01T21:46:42.591Z,42.03
2023-03-01T21:49:15.762Z,35.28
2023-03-01T21:51:45.653Z,37.65
2023-03-01T21:54:17.716Z,35.22
2023-03-01T21:56:49.830Z,43.25
2023-03-01T21:59:22.545Z,31.05
2023-03-01T22:01:54.107Z,32.08
2023-03-01T22:04:26.677Z,37.90
2023-03-01T22:06:56.938Z,43.97
2023-03-01T22:09:27.794Z,71.45
2023-03-01T22:12:02.690Z,108.32
2023-03-01T22:14:35.098Z,86.93
2023-03-01T22:17:05.049Z,90.85
2023-03-01T22:19:37.531Z,93.28
2023-03-01T22:22:07.726Z,90.07
2023-03-01T22:24:38.128Z,68.15
2023-03-01T22:27:08.056Z,49.22
2023-03-01T22:29:38.563Z,38.90
2023-03-01T22:32:10.176Z,38.97
2023-03-01T22:34:42.669Z,35.28
2023-03-01T22:37:12.572Z,26.48
2023-03-01T22:39:42.641Z,23.45
2023-03-01T22:42:12.496Z,20.77
2023-03-01T22:44:42.341Z,22.35
2023-03-01T22:47:12.209Z,25.48
2023-03-01T22:49:44.749Z,22.15
2023-03-01T22:52:14.568Z,21.10
2023-03-01T22:54:44.523Z,19.83
2023-03-01T22:57:14.585Z,21.40
2023-03-01T22:59:44.418Z,22.83
2023-03-01T23:02:14.383Z,26.42
2023-03-01T23:04:48.484Z,20.73
2023-03-01T23:07:18.381Z,19.40
2023-03-01T23:09:50.665Z,19.38
2023-03-01T23:12:20.882Z,19.75
2023-03-01T23:14:50.710Z,21.30
2023-03-01T23:17:20.544Z,17.02
2023-03-01T23:19:53.264Z,18.05
2023-03-01T23:22:23.282Z,19.50
2023-03-01T23:24:53.143Z,16.27
2023-03-01T23:27:23.051Z,19.95
2023-03-01T23:29:55.337Z,16.88
2023-03-01T23:32:25.509Z,23.05
2023-03-01T23:34:57.961Z,25.08
2023-03-01T23:37:32.917Z,20.25
2023-03-01T23:40:05.913Z,19.77
2023-03-01T23:42:36.062Z,20.58
2023-03-01T23:45:07.771Z,17.10
2023-03-01T23:47:37.851Z,22.30
2023-03-01T23:50:11.998Z,20.17
2023-03-01T23:52:42.832Z,16.33
2023-03-01T23:55:15.968Z,17.52
2023-03-01T23:57:45.823Z,26.92
